Island Lake, WI

4:38 PM CDT on September 19, 2014 (GMT -0500)
Chippewa Valley Regional | Change Station
CLOSE
Current Station
Airport
Location: Eau Claire,
Elevation: 906 ft
Nearby Weather Stations

Elev 906 ft 44.87 °N, 91.48 °W | Updated 42 minutes ago

Overcast
Overcast
76 °F
Feels Like 76 °F
N
21
Wind Variable Wind from SSW
Gusts 29 mph

Today
High -- | Low -- °F
--% Chance of Precip.
Yesterday
High -- | Low -- °F
Precip. -- in
6:49 AM 7:09 PM
Waning Crescent, 17% visible
Pressure 29.73 in
Visibility 10.0 miles
Clouds Clear
Dew Point 57 °F
Humidity 52%
Rainfall 0.00 in
Snow Depth Not available.
UV 3 out of 12
Pollen 4.60 out of 12
Air Quality Not available.
Flu Activity Not available.
METAR KEAU 192056Z 20018G25KT 10SM CLR 24/14 A2973 RMK AO2 PK WND 18030/2004 SLP065 T02440139 56033

More Conditions Fewer Conditions

Pressure 29.73 in
Visibility 10.0 miles
Clouds Clear
Dew Point 57 °F
Humidity 52%
Rainfall 0.00 in
Snow Depth Not available.
UV 3 out of 12
Pollen 4.60 out of 12
Air Quality Not available.
Flu Activity Not available.
METAR KEAU 192056Z 20018G25KT 10SM CLR 24/14 A2973 RMK AO2 PK WND 18030/2004 SLP065 T02440139 56033

More Conditions Fewer Conditions

10-Day Weather Forecast

Almanac

Astronomy

Sep. 19, 2014 Rise Set
Actual Time 6:49 AM CDT 7:09 PM CDT
Civil Twilight 6:19 AM CDT 7:38 PM CDT
Nautical Twilight 5:44 AM CDT 8:13 PM CDT
Astronomical Twilight 5:09 AM CDT 8:48 PM CDT
Moon 2:25 AM CDT 4:46 PM CDT
Length of Visible Light 13h 18m
Length of Day
12h 19m
Tomorrow will be 3m 8s shorter.
Waning Crescent, 17% of the Moon is Illuminated
Today
Waning Crescent
Sep 24
New
Oct 1
First Quarter
Oct 8
Full
Oct 15
Last Quarter

Today's Extremes

State Highs State Lows

Community

WunderPhotos

Upload Photos

1,754,703 photos uploaded!

WunderBlogs® & News

By Dr. Jeff Masters
Director of Meteorology, Weather Underground
By Kari Strenfel
Meteorologist, Weather Underground
By Christopher C. Burt
Weather Historian, Weather Underground
September 19, 2014
September 19, 2014
September 19, 2014

Nearby

Snow Depth

Station Depth Elevation
No new snow has been reported.

Earthquake Activity

City Distance Mag. Time & Date
No recent earthquake activity has been reported nearby.
Minimum magnitude displayed is 2.5.

Coastal Water Temperatures

Place Temperature
No Stations Reporting

Nearby Weather Stations